sensor_id;sensor_type;location;lat;lon;timestamp;pressure;altitude;pressure_sealevel;temperature;humidity
5988;BME280;3021;51.000;6.980;2023-11-22T00:02:23;67159.34;;;7.75;100.00
5988;BME280;3021;51.000;6.980;2023-11-22T00:04:53;67164.41;;;7.77;100.00
5988;BME280;3021;51.000;6.980;2023-11-22T00:07:18;67166.69;;;7.79;100.00
5988;BME280;3021;51.000;6.980;2023-11-22T00:09:43;67169.44;;;7.79;100.00
5988;BME280;3021;51.000;6.980;2023-11-22T00:12:08;67165.53;;;7.78;100.00
5988;BME280;3021;51.000;6.980;2023-11-22T00:14:34;67163.25;;;7.76;100.00
5988;BME280;3021;51.000;6.980;2023-11-22T00:17:00;67157.06;;;7.73;100.00
5988;BME280;3021;51.000;6.980;2023-11-22T00:19:26;67157.47;;;7.71;100.00
5988;BME280;3021;51.000;6.980;2023-11-22T00:21:52;67159.06;;;7.70;100.00
5988;BME280;3021;51.000;6.980;2023-11-22T00:24:17;67151.88;;;7.69;100.00
5988;BME280;3021;51.000;6.980;2023-11-22T00:26:43;67155.16;;;7.69;100.00
5988;BME280;3021;51.000;6.980;2023-11-22T00:29:08;67148.81;;;7.64;100.00
5988;BME280;3021;51.000;6.980;2023-11-22T00:31:34;67147.09;;;7.62;100.00
5988;BME280;3021;51.000;6.980;2023-11-22T00:33:59;67143.78;;;7.61;100.00
5988;BME280;3021;51.000;6.980;2023-11-22T00:36:24;67150.13;;;7.67;100.00
5988;BME280;3021;51.000;6.980;2023-11-22T00:38:50;67150.13;;;7.67;100.00
5988;BME280;3021;51.000;6.980;2023-11-22T00:41:15;67158.06;;;7.72;100.00
5988;BME280;3021;51.000;6.980;2023-11-22T00:43:40;67161.50;;;7.75;100.00
5988;BME280;3021;51.000;6.980;2023-11-22T00:46:06;67156.91;;;7.71;100.00
5988;BME280;3021;51.000;6.980;2023-11-22T00:48:31;67159.78;;;7.73;100.00
5988;BME280;3021;51.000;6.980;2023-11-22T00:50:57;67158.06;;;7.72;100.00
5988;BME280;3021;51.000;6.980;2023-11-22T00:53:23;67149.72;;;7.69;100.00
5988;BME280;3021;51.000;6.980;2023-11-22T00:55:48;67148.56;;;7.68;100.00
5988;BME280;3021;51.000;6.980;2023-11-22T00:58:14;67150.13;;;7.67;100.00
5988;BME280;3021;51.000;6.980;2023-11-22T01:00:39;67145.94;;;7.61;100.00
5988;BME280;3021;51.000;6.980;2023-11-22T01:03:04;67143.66;;;7.59;100.00
5988;BME280;3021;51.000;6.980;2023-11-22T01:05:30;67145.22;;;7.58;100.00
5988;BME280;3021;51.000;6.980;2023-11-22T01:07:55;67130.97;;;7.48;100.00
5988;BME280;3021;51.000;6.980;2023-11-22T01:10:21;67137.31;;;7.53;100.00
5988;BME280;3021;51.000;6.980;2023-11-22T01:12:47;67145.38;;;7.60;100.00
5988;BME280;3021;51.000;6.980;2023-11-22T01:15:13;67140.91;;;7.59;100.00
5988;BME280;3021;51.000;6.980;2023-11-22T01:17:39;67152.28;;;7.67;100.00
5988;BME280;3021;51.000;6.980;2023-11-22T01:20:05;67154.59;;;7.69;100.00
5988;BME280;3021;51.000;6.980;2023-11-22T01:22:31;67144.78;;;7.60;100.00
5988;BME280;3021;51.000;6.980;2023-11-22T01:24:56;67140.16;;;7.56;100.00
5988;BME280;3021;51.000;6.980;2023-11-22T01:27:21;67137.88;;;7.54;100.00
5988;BME280;3021;51.000;6.980;2023-11-22T01:29:47;67142.34;;;7.55;100.00
5988;BME280;3021;51.000;6.980;2023-11-22T01:32:12;67132.69;;;7.49;100.00
5988;BME280;3021;51.000;6.980;2023-11-22T01:34:37;67137.72;;;7.51;100.00
5988;BME280;3021;51.000;6.980;2023-11-22T01:37:03;67138.88;;;7.52;100.00
5988;BME280;3021;51.000;6.980;2023-11-22T01:39:29;67123.78;;;7.46;100.00
5988;BME280;3021;51.000;6.980;2023-11-22T01:41:54;67114.41;;;7.35;100.00
5988;BME280;3021;51.000;6.980;2023-11-22T01:44:20;67114.84;;;7.33;100.00
5988;BME280;3021;51.000;6.980;2023-11-22T01:46:45;67111.34;;;7.30;100.00
5988;BME280;3021;51.000;6.980;2023-11-22T01:49:11;67108.06;;;7.30;100.00
5988;BME280;3021;51.000;6.980;2023-11-22T01:51:40;67106.19;;;7.25;100.00
5988;BME280;3021;51.000;6.980;2023-11-22T01:54:07;67105.59;;;7.25;100.00
5988;BME280;3021;51.000;6.980;2023-11-22T01:56:35;67115.84;;;7.32;100.00
5988;BME280;3021;51.000;6.980;2023-11-22T01:59:02;67110.22;;;7.29;100.00
5988;BME280;3021;51.000;6.980;2023-11-22T02:01:28;67106.19;;;7.25;100.00
5988;BME280;3021;51.000;6.980;2023-11-22T02:03:54;67110.38;;;7.32;100.00
5988;BME280;3021;51.000;6.980;2023-11-22T02:06:20;67117.13;;;7.35;100.00
5988;BME280;3021;51.000;6.980;2023-11-22T02:08:46;67117.69;;;7.36;100.00
5988;BME280;3021;51.000;6.980;2023-11-22T02:11:12;67115.97;;;7.34;100.00
5988;BME280;3021;51.000;6.980;2023-11-22T02:13:37;67121.75;;;7.39;100.00
5988;BME280;3021;51.000;6.980;2023-11-22T02:16:03;67119.44;;;7.37;100.00
5988;BME280;3021;51.000;6.980;2023-11-22T02:18:29;67125.03;;;7.40;100.00
5988;BME280;3021;51.000;6.980;2023-11-22T02:20:55;67124.78;;;7.44;100.00
5988;BME280;3021;51.000;6.980;2023-11-22T02:23:20;67128.66;;;7.46;100.00
5988;BME280;3021;51.000;6.980;2023-11-22T02:25:47;67128.09;;;7.45;100.00
5988;BME280;3021;51.000;6.980;2023-11-22T02:28:12;67132.53;;;7.47;100.00
5988;BME280;3021;51.000;6.980;2023-11-22T02:30:37;67132.09;;;7.49;100.00
5988;BME280;3021;51.000;6.980;2023-11-22T02:33:03;67134.41;;;7.51;100.00
5988;BME280;3021;51.000;6.980;2023-11-22T02:35:30;67131.53;;;7.48;100.00
5988;BME280;3021;51.000;6.980;2023-11-22T02:37:57;67127.50;;;7.44;100.00
5988;BME280;3021;51.000;6.980;2023-11-22T02:40:22;67125.75;;;7.43;100.00
5988;BME280;3021;51.000;6.980;2023-11-22T02:42:49;67125.91;;;7.46;100.00
5988;BME280;3021;51.000;6.980;2023-11-22T02:45:15;67131.13;;;7.50;100.00
5988;BME280;3021;51.000;6.980;2023-11-22T02:47:41;67133.25;;;7.50;100.00
5988;BME280;3021;51.000;6.980;2023-11-22T02:50:12;67136.72;;;7.53;100.00
5988;BME280;3021;51.000;6.980;2023-11-22T02:52:37;67137.88;;;7.54;100.00
5988;BME280;3021;51.000;6.980;2023-11-22T02:55:03;67144.06;;;7.57;100.00
5988;BME280;3021;51.000;6.980;2023-11-22T02:57:30;67129.25;;;7.46;100.00
5988;BME280;3021;51.000;6.980;2023-11-22T02:59:56;67121.00;;;7.36;100.00
5988;BME280;3021;51.000;6.980;2023-11-22T03:02:21;67104.44;;;7.24;100.00
5988;BME280;3021;51.000;6.980;2023-11-22T03:04:46;67095.97;;;7.19;100.00
5988;BME280;3021;51.000;6.980;2023-11-22T03:07:12;67086.75;;;7.11;100.00
5988;BME280;3021;51.000;6.980;2023-11-22T03:09:37;67082.53;;;7.04;100.00
5988;BME280;3021;51.000;6.980;2023-11-22T03:12:03;67088.16;;;7.07;100.00
5988;BME280;3021;51.000;6.980;2023-11-22T03:14:28;67096.22;;;7.14;100.00
5988;BME280;3021;51.000;6.980;2023-11-22T03:16:54;67097.69;;;7.20;100.00
5988;BME280;3021;51.000;6.980;2023-11-22T03:19:20;67107.34;;;7.26;100.00
5988;BME280;3021;51.000;6.980;2023-11-22T03:21:46;67106.75;;;7.26;100.00
5988;BME280;3021;51.000;6.980;2023-11-22T03:24:11;67105.75;;;7.28;100.00
5988;BME280;3021;51.000;6.980;2023-11-22T03:26:36;67109.06;;;7.28;100.00
5988;BME280;3021;51.000;6.980;2023-11-22T03:29:02;67101.44;;;7.19;100.00
5988;BME280;3021;51.000;6.980;2023-11-22T03:31:30;67089.47;;;7.11;100.00
5988;BME280;3021;51.000;6.980;2023-11-22T03:33:56;67075.66;;;6.98;100.00
5988;BME280;3021;51.000;6.980;2023-11-22T03:36:22;67058.94;;;6.83;100.00
5988;BME280;3021;51.000;6.980;2023-11-22T03:38:48;67048.56;;;6.74;100.00
5988;BME280;3021;51.000;6.980;2023-11-22T03:41:14;67038.22;;;6.65;100.00
5988;BME280;3021;51.000;6.980;2023-11-22T03:43:39;67025.53;;;6.53;100.00
5988;BME280;3021;51.000;6.980;2023-11-22T03:46:05;67015.16;;;6.44;100.00
5988;BME280;3021;51.000;6.980;2023-11-22T03:48:30;67004.66;;;6.32;100.00
5988;BME280;3021;51.000;6.980;2023-11-22T03:50:56;66991.16;;;6.25;100.00
5988;BME280;3021;51.000;6.980;2023-11-22T03:53:21;66985.81;;;6.18;100.00
5988;BME280;3021;51.000;6.980;2023-11-22T03:55:49;66983.50;;;6.16;100.00
5988;BME280;3021;51.000;6.980;2023-11-22T03:58:15;66971.00;;;6.07;100.00
5988;BME280;3021;51.000;6.980;2023-11-22T04:00:40;66973.72;;;6.07;100.00
5988;BME280;3021;51.000;6.980;2023-11-22T04:03:05;66969.69;;;6.03;100.00
5988;BME280;3021;51.000;6.980;2023-11-22T04:05:31;66961.81;;;5.99;100.00
5988;BME280;3021;51.000;6.980;2023-11-22T04:07:57;66960.88;;;5.93;100.00
5988;BME280;3021;51.000;6.980;2023-11-22T04:10:22;66955.28;;;5.91;100.00
5988;BME280;3021;51.000;6.980;2023-11-22T04:12:49;66946.06;;;5.82;100.00
5988;BME280;3021;51.000;6.980;2023-11-22T04:15:14;66946.66;;;5.83;100.00
5988;BME280;3021;51.000;6.980;2023-11-22T04:17:40;66937.03;;;5.77;100.00
5988;BME280;3021;51.000;6.980;2023-11-22T04:20:09;66940.31;;;5.77;100.00
5988;BME280;3021;51.000;6.980;2023-11-22T04:22:36;66937.84;;;5.72;100.00
5988;BME280;3021;51.000;6.980;2023-11-22T04:25:02;66931.13;;;5.69;100.00
5988;BME280;3021;51.000;6.980;2023-11-22T04:27:28;66923.22;;;5.64;100.00
5988;BME280;3021;51.000;6.980;2023-11-22T04:29:53;66926.91;;;5.63;100.00
5988;BME280;3021;51.000;6.980;2023-11-22T04:32:18;66916.31;;;5.58;100.00
5988;BME280;3021;51.000;6.980;2023-11-22T04:34:44;66915.00;;;5.54;100.00
5988;BME280;3021;51.000;6.980;2023-11-22T04:37:09;66913.84;;;5.53;100.00
5988;BME280;3021;51.000;6.980;2023-11-22T04:39:35;66914.44;;;5.54;100.00
5988;BME280;3021;51.000;6.980;2023-11-22T04:42:00;66908.09;;;5.48;100.00
5988;BME280;3021;51.000;6.980;2023-11-22T04:44:26;66909.09;;;5.47;100.00
5988;BME280;3021;51.000;6.980;2023-11-22T04:46:51;66907.53;;;5.48;100.00
5988;BME280;3021;51.000;6.980;2023-11-22T04:49:17;66905.06;;;5.43;100.00
5988;BME280;3021;51.000;6.980;2023-11-22T04:51:42;66899.31;;;5.38;100.00
5988;BME280;3021;51.000;6.980;2023-11-22T04:54:09;66892.00;;;5.34;100.00
5988;BME280;3021;51.000;6.980;2023-11-22T04:56:34;66894.13;;;5.33;100.00
5988;BME280;3021;51.000;6.980;2023-11-22T04:59:00;66890.84;;;5.33;100.00
5988;BME280;3021;51.000;6.980;2023-11-22T05:01:31;66890.09;;;5.30;100.00
5988;BME280;3021;51.000;6.980;2023-11-22T05:03:56;66885.66;;;5.28;100.00
5988;BME280;3021;51.000;6.980;2023-11-22T05:06:22;66877.59;;;5.21;100.00
5988;BME280;3021;51.000;6.980;2023-11-22T05:08:47;66882.63;;;5.23;100.00
5988;BME280;3021;51.000;6.980;2023-11-22T05:11:12;66879.34;;;5.23;100.00
5988;BME280;3021;51.000;6.980;2023-11-22T05:13:40;66875.72;;;5.17;100.00
5988;BME280;3021;51.000;6.980;2023-11-22T05:16:06;66880.31;;;5.21;100.00
5988;BME280;3021;51.000;6.980;2023-11-22T05:18:31;66874.16;;;5.18;100.00
5988;BME280;3021;51.000;6.980;2023-11-22T05:20:56;66873.59;;;5.17;100.00
5988;BME280;3021;51.000;6.980;2023-11-22T05:23:22;66871.88;;;5.16;100.00
5988;BME280;3021;51.000;6.980;2023-11-22T05:25:48;66869.56;;;5.14;100.00
5988;BME280;3021;51.000;6.980;2023-11-22T05:28:13;66872.13;;;5.11;100.00
5988;BME280;3021;51.000;6.980;2023-11-22T05:30:39;66869.41;;;5.11;100.00
5988;BME280;3021;51.000;6.980;2023-11-22T05:33:04;66863.81;;;5.09;100.00
5988;BME280;3021;51.000;6.980;2023-11-22T05:35:29;66868.41;;;5.13;100.00
5988;BME280;3021;51.000;6.980;2023-11-22T05:37:55;66869.25;;;5.09;100.00
5988;BME280;3021;51.000;6.980;2023-11-22T05:40:20;66864.22;;;5.07;100.00
5988;BME280;3021;51.000;6.980;2023-11-22T05:42:46;66863.81;;;5.09;100.00
5988;BME280;3021;51.000;6.980;2023-11-22T05:45:12;66864.38;;;5.09;100.00
5988;BME280;3021;51.000;6.980;2023-11-22T05:47:37;66868.25;;;5.10;100.00
5988;BME280;3021;51.000;6.980;2023-11-22T05:50:04;66856.50;;;5.05;100.00
5988;BME280;3021;51.000;6.980;2023-11-22T05:52:30;66859.63;;;5.02;100.00
5988;BME280;3021;51.000;6.980;2023-11-22T05:54:55;66858.31;;;4.99;100.00
5988;BME280;3021;51.000;6.980;2023-11-22T05:57:21;66854.28;;;4.95;100.00
5988;BME280;3021;51.000;6.980;2023-11-22T05:59:47;66850.00;;;4.96;100.00
5988;BME280;3021;51.000;6.980;2023-11-22T06:02:12;66843.69;;;4.91;100.00
5988;BME280;3021;51.000;6.980;2023-11-22T06:04:38;66840.25;;;4.88;100.00
5988;BME280;3021;51.000;6.980;2023-11-22T06:07:03;66838.91;;;4.84;100.00
5988;BME280;3021;51.000;6.980;2023-11-22T06:09:30;66828.75;;;4.77;100.00
5988;BME280;3021;51.000;6.980;2023-11-22T06:11:55;66827.44;;;4.74;100.00
5988;BME280;3021;51.000;6.980;2023-11-22T06:14:20;66821.66;;;4.68;100.00
5988;BME280;3021;51.000;6.980;2023-11-22T06:16:46;66813.78;;;4.64;100.00
5988;BME280;3021;51.000;6.980;2023-11-22T06:19:11;66812.06;;;4.62;100.00
5988;BME280;3021;51.000;6.980;2023-11-22T06:21:36;66808.44;;;4.57;100.00
5988;BME280;3021;51.000;6.980;2023-11-22T06:24:03;66803.84;;;4.53;100.00
5988;BME280;3021;51.000;6.980;2023-11-22T06:26:31;66799.25;;;4.48;100.00
5988;BME280;3021;51.000;6.980;2023-11-22T06:28:57;66791.38;;;4.44;100.00
5988;BME280;3021;51.000;6.980;2023-11-22T06:31:22;66790.22;;;4.43;100.00
5988;BME280;3021;51.000;6.980;2023-11-22T06:33:48;66786.59;;;4.37;100.00
5988;BME280;3021;51.000;6.980;2023-11-22T06:36:13;66779.16;;;4.30;100.00
5988;BME280;3021;51.000;6.980;2023-11-22T06:38:40;66767.22;;;4.22;100.00
5988;BME280;3021;51.000;6.980;2023-11-22T06:41:05;66760.34;;;4.16;100.00
5988;BME280;3021;51.000;6.980;2023-11-22T06:43:31;66756.75;;;4.10;100.00
5988;BME280;3021;51.000;6.980;2023-11-22T06:45:56;66751.53;;;4.06;100.00
5988;BME280;3021;51.000;6.980;2023-11-22T06:48:22;66744.81;;;4.02;100.00
5988;BME280;3021;51.000;6.980;2023-11-22T06:50:47;66741.78;;;3.97;100.00
5988;BME280;3021;51.000;6.980;2023-11-22T06:53:13;66741.22;;;3.96;100.00
5988;BME280;3021;51.000;6.980;2023-11-22T06:55:38;66731.03;;;3.90;100.00
5988;BME280;3021;51.000;6.980;2023-11-22T06:58:04;66729.72;;;3.86;100.00
5988;BME280;3021;51.000;6.980;2023-11-22T07:00:30;66722.81;;;3.80;100.00
5988;BME280;3021;51.000;6.980;2023-11-22T07:02:56;66720.97;;;3.76;100.00
5988;BME280;3021;51.000;6.980;2023-11-22T07:05:21;66712.50;;;3.71;100.00
5988;BME280;3021;51.000;6.980;2023-11-22T07:07:46;66704.44;;;3.63;100.00
5988;BME280;3021;51.000;6.980;2023-11-22T07:10:13;66704.28;;;3.61;100.00
5988;BME280;3021;51.000;6.980;2023-11-22T07:12:39;66697.56;;;3.57;100.00
5988;BME280;3021;51.000;6.980;2023-11-22T07:15:05;66691.41;;;3.54;100.00
5988;BME280;3021;51.000;6.980;2023-11-22T07:17:31;66687.38;;;3.51;100.00
5988;BME280;3021;51.000;6.980;2023-11-22T07:19:58;66692.38;;;3.53;100.00
5988;BME280;3021;51.000;6.980;2023-11-22T07:22:24;66690.66;;;3.51;100.00
5988;BME280;3021;51.000;6.980;2023-11-22T07:24:49;66685.06;;;3.49;100.00
5988;BME280;3021;51.000;6.980;2023-11-22T07:27:19;66688.38;;;3.49;100.00
5988;BME280;3021;51.000;6.980;2023-11-22T07:29:45;66687.78;;;3.49;100.00
5988;BME280;3021;51.000;6.980;2023-11-22T07:32:11;66691.09;;;3.49;100.00
5988;BME280;3021;51.000;6.980;2023-11-22T07:34:38;66684.94;;;3.46;100.00
5988;BME280;3021;51.000;6.980;2023-11-22T07:37:05;66678.75;;;3.43;100.00
5988;BME280;3021;51.000;6.980;2023-11-22T07:39:32;66685.50;;;3.46;100.00
5988;BME280;3021;51.000;6.980;2023-11-22T07:41:58;66693.38;;;3.51;100.00
5988;BME280;3021;51.000;6.980;2023-11-22T07:44:24;66696.41;;;3.56;100.00
5988;BME280;3021;51.000;6.980;2023-11-22T07:46:50;66708.47;;;3.67;100.00
5988;BME280;3021;51.000;6.980;2023-11-22T07:49:17;66717.66;;;3.75;100.00
5988;BME280;3021;51.000;6.980;2023-11-22T07:51:43;66732.59;;;3.89;100.00
5988;BME280;3021;51.000;6.980;2023-11-22T07:54:10;66748.84;;;4.06;100.00
5988;BME280;3021;51.000;6.980;2023-11-22T07:56:40;66776.28;;;4.28;100.00
5988;BME280;3021;51.000;6.980;2023-11-22T07:59:08;66798.53;;;4.45;100.00
5988;BME280;3021;51.000;6.980;2023-11-22T08:01:33;66852.72;;;4.96;100.00
5988;BME280;3021;51.000;6.980;2023-11-22T08:03:59;66993.31;;;6.25;100.00
5988;BME280;3021;51.000;6.980;2023-11-22T08:06:24;67134.16;;;7.55;100.00
5988;BME280;3021;51.000;6.980;2023-11-22T08:08:53;67256.81;;;8.62;100.00
5988;BME280;3021;51.000;6.980;2023-11-22T08:11:19;67333.13;;;9.33;100.00
5988;BME280;3021;51.000;6.980;2023-11-22T08:13:44;67393.63;;;9.84;100.00
5988;BME280;3021;51.000;6.980;2023-11-22T08:16:13;67470.47;;;10.53;100.00
5988;BME280;3021;51.000;6.980;2023-11-22T08:18:40;67519.28;;;10.92;100.00
5988;BME280;3021;51.000;6.980;2023-11-22T08:21:08;67516.69;;;10.94;100.00
5988;BME280;3021;51.000;6.980;2023-11-22T08:23:33;67584.50;;;11.57;100.00
5988;BME280;3021;51.000;6.980;2023-11-22T08:26:01;67675.91;;;12.38;100.00
5988;BME280;3021;51.000;6.980;2023-11-22T08:28:27;67796.34;;;13.45;100.00
5988;BME280;3021;51.000;6.980;2023-11-22T08:30:54;67951.13;;;14.83;100.00
5988;BME280;3021;51.000;6.980;2023-11-22T08:33:19;68030.59;;;15.53;100.00
5988;BME280;3021;51.000;6.980;2023-11-22T08:35:45;68002.16;;;15.28;100.00
5988;BME280;3021;51.000;6.980;2023-11-22T08:38:16;67859.38;;;13.99;100.00
5988;BME280;3021;51.000;6.980;2023-11-22T08:40:41;67730.78;;;12.85;100.00
5988;BME280;3021;51.000;6.980;2023-11-22T08:43:07;67654.50;;;12.19;100.00
5988;BME280;3021;51.000;6.980;2023-11-22T08:45:32;67627.72;;;11.93;100.00
5988;BME280;3021;51.000;6.980;2023-11-22T08:47:58;67640.91;;;12.02;100.00
5988;BME280;3021;51.000;6.980;2023-11-22T08:50:24;67672.91;;;12.33;100.00
5988;BME280;3021;51.000;6.980;2023-11-22T08:52:49;67735.84;;;12.87;100.00
5988;BME280;3021;51.000;6.980;2023-11-22T08:55:18;67814.16;;;13.59;100.00
5988;BME280;3021;51.000;6.980;2023-11-22T08:57:48;67849.66;;;13.93;100.00
5988;BME280;3021;51.000;6.980;2023-11-22T09:00:13;67873.88;;;14.12;100.00
5988;BME280;3021;51.000;6.980;2023-11-22T09:02:40;67921.53;;;14.57;100.00
5988;BME280;3021;51.000;6.980;2023-11-22T09:05:06;67929.66;;;14.64;100.00
5988;BME280;3021;51.000;6.980;2023-11-22T09:07:36;67807.94;;;13.56;100.00
5988;BME280;3021;51.000;6.980;2023-11-22T09:10:03;67698.34;;;12.56;100.00
5988;BME280;3021;51.000;6.980;2023-11-22T09:12:37;67657.41;;;12.22;100.00
5988;BME280;3021;51.000;6.980;2023-11-22T09:15:05;67654.50;;;12.19;100.00
5988;BME280;3021;51.000;6.980;2023-11-22T09:17:33;67665.94;;;12.27;100.00
5988;BME280;3021;51.000;6.980;2023-11-22T09:19:59;67646.84;;;12.10;100.00
5988;BME280;3021;51.000;6.980;2023-11-22T09:22:24;67635.72;;;11.98;100.00
5988;BME280;3021;51.000;6.980;2023-11-22T09:24:51;67658.44;;;12.20;100.00
5988;BME280;3021;51.000;6.980;2023-11-22T09:27:16;67702.81;;;12.57;100.00
5988;BME280;3021;51.000;6.980;2023-11-22T09:29:43;67748.88;;;13.03;100.00
5988;BME280;3021;51.000;6.980;2023-11-22T09:32:08;67825.78;;;13.69;100.00
5988;BME280;3021;51.000;6.980;2023-11-22T09:34:35;68027.69;;;15.51;100.00
5988;BME280;3021;51.000;6.980;2023-11-22T09:37:01;68310.25;;;18.06;100.00
5988;BME280;3021;51.000;6.980;2023-11-22T09:39:26;68514.34;;;19.84;100.00
5988;BME280;3021;51.000;6.980;2023-11-22T09:41:52;68512.59;;;19.83;100.00
5988;BME280;3021;51.000;6.980;2023-11-22T09:44:18;68443.78;;;19.20;100.00
5988;BME280;3021;51.000;6.980;2023-11-22T09:46:44;68327.44;;;18.17;100.00
5988;BME280;3021;51.000;6.980;2023-11-22T09:49:13;68294.25;;;17.87;100.00
5988;BME280;3021;51.000;6.980;2023-11-22T09:51:43;68289.19;;;17.85;100.00
5988;BME280;3021;51.000;6.980;2023-11-22T09:54:09;68258.81;;;17.56;100.00
5988;BME280;3021;51.000;6.980;2023-11-22T09:56:39;68103.72;;;16.18;100.00
5988;BME280;3021;51.000;6.980;2023-11-22T09:59:06;67991.59;;;15.16;100.00
5988;BME280;3021;51.000;6.980;2023-11-22T10:01:32;67973.00;;;15.00;100.00
5988;BME280;3021;51.000;6.980;2023-11-22T10:04:01;67882.69;;;14.22;100.00
5988;BME280;3021;51.000;6.980;2023-11-22T10:06:28;67894.72;;;14.30;100.00
5988;BME280;3021;51.000;6.980;2023-11-22T10:08:58;67997.38;;;15.21;100.00
5988;BME280;3021;51.000;6.980;2023-11-22T10:11:25;68038.00;;;15.58;100.00
5988;BME280;3021;51.000;6.980;2023-11-22T10:13:50;68050.03;;;15.66;100.00
5988;BME280;3021;51.000;6.980;2023-11-22T10:16:17;68033.22;;;15.51;100.00
5988;BME280;3021;51.000;6.980;2023-11-22T10:18:45;67979.41;;;15.06;100.00
5988;BME280;3021;51.000;6.980;2023-11-22T10:21:29;67967.34;;;14.97;100.00
5988;BME280;3021;51.000;6.980;2023-11-22T10:24:00;67960.84;;;14.89;100.00
5988;BME280;3021;51.000;6.980;2023-11-22T10:26:27;67942.28;;;14.73;100.00
5988;BME280;3021;51.000;6.980;2023-11-22T10:28:54;67888.34;;;14.25;100.00
5988;BME280;3021;51.000;6.980;2023-11-22T10:31:20;67808.81;;;13.52;100.00
5988;BME280;3021;51.000;6.980;2023-11-22T10:33:47;67745.53;;;12.93;100.00
5988;BME280;3021;51.000;6.980;2023-11-22T10:36:13;67706.44;;;12.63;100.00
5988;BME280;3021;51.000;6.980;2023-11-22T10:38:40;67688.34;;;12.44;100.00
5988;BME280;3021;51.000;6.980;2023-11-22T10:41:07;67650.91;;;12.14;100.00
5988;BME280;3021;51.000;6.980;2023-11-22T10:43:34;67624.69;;;11.88;100.00
5988;BME280;3021;51.000;6.980;2023-11-22T10:46:01;67597.50;;;11.64;100.00
5988;BME280;3021;51.000;6.980;2023-11-22T10:48:27;67564.13;;;11.36;100.00
5988;BME280;3021;51.000;6.980;2023-11-22T10:50:54;67530.56;;;11.06;100.00
5988;BME280;3021;51.000;6.980;2023-11-22T10:53:29;67516.13;;;10.94;100.00
5988;BME280;3021;51.000;6.980;2023-11-22T10:58:32;67515.97;;;10.91;100.00
5988;BME280;3021;51.000;6.980;2023-11-22T11:00:58;67512.66;;;10.91;100.00
5988;BME280;3021;51.000;6.980;2023-11-22T11:03:24;67527.69;;;11.04;100.00
5988;BME280;3021;51.000;6.980;2023-11-22T11:05:59;67519.44;;;10.94;100.00
5988;BME280;3021;51.000;6.980;2023-11-22T11:08:30;67490.13;;;10.70;100.00
5988;BME280;3021;51.000;6.980;2023-11-22T11:10:57;67487.81;;;10.68;100.00
5988;BME280;3021;51.000;6.980;2023-11-22T11:13:24;67499.94;;;10.79;100.00
5988;BME280;3021;51.000;6.980;2023-11-22T11:15:52;67512.50;;;10.88;100.00
5988;BME280;3021;51.000;6.980;2023-11-22T11:18:18;67517.13;;;10.92;100.00
5988;BME280;3021;51.000;6.980;2023-11-22T11:20:50;67519.44;;;10.94;100.00
5988;BME280;3021;51.000;6.980;2023-11-22T11:23:20;67503.09;;;10.77;100.00
5988;BME280;3021;51.000;6.980;2023-11-22T11:25:52;67455.28;;;10.37;100.00
5988;BME280;3021;51.000;6.980;2023-11-22T11:28:19;67410.38;;;9.99;100.00
5988;BME280;3021;51.000;6.980;2023-11-22T11:30:48;67403.88;;;9.91;100.00
5988;BME280;3021;51.000;6.980;2023-11-22T11:33:19;67403.28;;;9.91;100.00
5988;BME280;3021;51.000;6.980;2023-11-22T11:35:49;67399.41;;;9.90;100.00
5988;BME280;3021;51.000;6.980;2023-11-22T11:38:16;67403.88;;;9.91;100.00
5988;BME280;3021;51.000;6.980;2023-11-22T11:40:48;67408.50;;;9.95;100.00
5988;BME280;3021;51.000;6.980;2023-11-22T11:43:14;67418.91;;;10.05;100.00
5988;BME280;3021;51.000;6.980;2023-11-22T11:45:41;67420.63;;;10.06;100.00
5988;BME280;3021;51.000;6.980;2023-11-22T11:48:15;67412.53;;;9.99;100.00
5988;BME280;3021;51.000;6.980;2023-11-22T11:50:41;67405.03;;;9.92;100.00
5988;BME280;3021;51.000;6.980;2023-11-22T11:53:06;67400.97;;;9.89;100.00
5988;BME280;3021;51.000;6.980;2023-11-22T11:55:32;67397.50;;;9.85;100.00
5988;BME280;3021;51.000;6.980;2023-11-22T11:58:04;67387.69;;;9.77;100.00
5988;BME280;3021;51.000;6.980;2023-11-22T12:00:30;67381.34;;;9.71;100.00
5988;BME280;3021;51.000;6.980;2023-11-22T12:02:55;67367.47;;;9.59;100.00
5988;BME280;3021;51.000;6.980;2023-11-22T12:05:20;67378.44;;;9.68;100.00
5988;BME280;3021;51.000;6.980;2023-11-22T12:07:46;67388.72;;;9.75;100.00
5988;BME280;3021;51.000;6.980;2023-11-22T12:10:12;67387.13;;;9.76;100.00
5988;BME280;3021;51.000;6.980;2023-11-22T12:12:38;67407.63;;;9.90;100.00
5988;BME280;3021;51.000;6.980;2023-11-22T12:15:04;67413.25;;;10.02;100.00
5988;BME280;3021;51.000;6.980;2023-11-22T12:17:31;67396.09;;;9.89;100.00
5988;BME280;3021;51.000;6.980;2023-11-22T12:20:15;67394.63;;;9.83;100.00
5988;BME280;3021;51.000;6.980;2023-11-22T12:22:43;67374.28;;;9.62;100.00
5988;BME280;3021;51.000;6.980;2023-11-22T12:25:10;67321.44;;;9.20;100.00
5988;BME280;3021;51.000;6.980;2023-11-22T12:27:43;67283.78;;;8.84;100.00
5988;BME280;3021;51.000;6.980;2023-11-22T12:30:09;67252.06;;;8.56;100.00
5988;BME280;3021;51.000;6.980;2023-11-22T12:32:52;67226.09;;;8.33;100.00
5988;BME280;3021;51.000;6.980;2023-11-22T12:35:17;67208.22;;;8.17;100.00
5988;BME280;3021;51.000;6.980;2023-11-22T12:37:43;67204.75;;;8.13;100.00
5988;BME280;3021;51.000;6.980;2023-11-22T12:40:09;67208.22;;;8.17;100.00
5988;BME280;3021;51.000;6.980;2023-11-22T12:42:46;67210.50;;;8.19;100.00
5988;BME280;3021;51.000;6.980;2023-11-22T12:45:22;67215.13;;;8.23;100.00
5988;BME280;3021;51.000;6.980;2023-11-22T12:47:49;67217.84;;;8.23;100.00
5988;BME280;3021;51.000;6.980;2023-11-22T12:50:37;67208.38;;;8.19;100.00
5988;BME280;3021;51.000;6.980;2023-11-22T12:53:12;67201.13;;;8.08;100.00
5988;BME280;3021;51.000;6.980;2023-11-22T12:55:51;67188.59;;;7.99;100.00
5988;BME280;3021;51.000;6.980;2023-11-22T12:58:17;67190.75;;;7.99;100.00
5988;BME280;3021;51.000;6.980;2023-11-22T13:00:48;67191.50;;;8.02;100.00
5988;BME280;3021;51.000;6.980;2023-11-22T13:03:13;67200.13;;;8.09;100.00
5988;BME280;3021;51.000;6.980;2023-11-22T13:05:43;67211.09;;;8.19;100.00
5988;BME280;3021;51.000;6.980;2023-11-22T13:08:10;67228.97;;;8.35;100.00
5988;BME280;3021;51.000;6.980;2023-11-22T13:10:46;67231.72;;;8.35;100.00
5988;BME280;3021;51.000;6.980;2023-11-22T13:13:21;67226.53;;;8.30;100.00
5988;BME280;3021;51.000;6.980;2023-11-22T13:15:46;67219.31;;;8.29;100.00
5988;BME280;3021;51.000;6.980;2023-11-22T13:18:12;67215.13;;;8.23;100.00
5988;BME280;3021;51.000;6.980;2023-11-22T13:20:37;67220.91;;;8.28;100.00